createdAt,value
2018-11-29T00:00:52.063Z,97547.98
2018-11-29T00:03:21.076Z,97547.98
2018-11-29T00:05:49.659Z,97543.42
2018-11-29T00:08:18.703Z,97544.44
2018-11-29T00:10:47.435Z,97558.66
2018-11-29T00:13:16.087Z,97534.41
2018-11-29T00:15:44.795Z,97542.92
2018-11-29T00:18:13.183Z,97529.06
2018-11-29T00:20:41.664Z,97527.70
2018-11-29T00:23:10.448Z,97515.55
2018-11-29T00:25:39.379Z,97510.80
2018-11-29T00:28:08.019Z,97507.59
2018-11-29T00:30:36.568Z,97520.25
2018-11-29T00:33:05.491Z,97517.74
2018-11-29T00:35:34.004Z,97522.80
2018-11-29T00:38:02.611Z,97535.48
2018-11-29T00:40:31.464Z,97541.22
2018-11-29T00:43:00.113Z,97547.31
2018-11-29T00:45:29.077Z,97542.59
2018-11-29T00:47:57.767Z,97549.34
2018-11-29T00:50:26.728Z,97553.39
2018-11-29T00:52:55.240Z,97552.72
2018-11-29T00:55:24.044Z,97546.14
2018-11-29T00:57:54.350Z,97553.56
2018-11-29T01:00:24.276Z,97542.88
2018-11-29T01:02:52.717Z,97540.16
2018-11-29T01:05:21.331Z,97552.34
2018-11-29T01:07:50.422Z,97539.66
2018-11-29T01:10:19.680Z,97536.29
2018-11-29T01:12:48.575Z,97525.98
2018-11-29T01:15:19.090Z,97533.45
2018-11-29T01:17:48.380Z,97533.24
2018-11-29T01:20:17.445Z,97546.30
2018-11-29T01:22:46.016Z,97537.80
2018-11-29T01:25:14.753Z,97533.75
2018-11-29T01:27:43.750Z,97544.11
2018-11-29T01:30:16.559Z,97552.04
2018-11-29T01:32:45.398Z,97544.95
2018-11-29T01:35:14.360Z,97552.67
2018-11-29T01:37:42.819Z,97549.63
2018-11-29T01:40:17.189Z,97550.66
2018-11-29T01:42:46.101Z,97542.70
2018-11-29T01:45:14.644Z,97542.72
2018-11-29T01:47:43.096Z,97549.48
2018-11-29T01:50:11.892Z,97547.28
2018-11-29T01:52:40.487Z,97546.94
2018-11-29T01:55:09.258Z,97548.33
2018-11-29T01:57:37.856Z,97541.06
2018-11-29T02:00:10.250Z,97545.23
2018-11-29T02:02:38.723Z,97546.08
2018-11-29T02:05:08.196Z,97538.70
2018-11-29T02:07:37.118Z,97527.72
2018-11-29T02:10:11.260Z,97534.94
2018-11-29T02:12:39.834Z,97532.05
2018-11-29T02:15:08.821Z,97523.26
2018-11-29T02:17:37.403Z,97528.36
2018-11-29T02:20:07.076Z,97525.13
2018-11-29T02:22:35.491Z,97527.15
2018-11-29T02:25:04.315Z,97524.78
2018-11-29T02:27:32.744Z,97521.76
2018-11-29T02:30:01.548Z,97515.83
2018-11-29T02:32:30.027Z,97525.30
2018-11-29T02:34:58.815Z,97523.78
2018-11-29T02:37:27.628Z,97524.63
2018-11-29T02:39:56.247Z,97525.68
2018-11-29T02:42:24.874Z,97525.98
2018-11-29T02:44:53.413Z,97532.39
2018-11-29T02:47:21.867Z,97523.78
2018-11-29T02:49:50.416Z,97526.31
2018-11-29T02:52:18.967Z,97529.70
2018-11-29T02:54:47.489Z,97525.30
2018-11-29T02:57:15.914Z,97524.78
2018-11-29T02:59:44.878Z,97524.63
2018-11-29T03:02:13.669Z,97523.95
2018-11-29T03:04:42.238Z,97507.57
2018-11-29T03:07:10.798Z,97515.34
2018-11-29T03:09:40.497Z,97514.14
2018-11-29T03:12:08.907Z,97499.10
2018-11-29T03:14:37.333Z,97503.52
2018-11-29T03:17:05.885Z,97502.48
2018-11-29T03:19:34.815Z,97504.85
2018-11-29T03:22:03.376Z,97508.11
2018-11-29T03:24:31.925Z,97512.98
2018-11-29T03:27:00.733Z,97518.38
2018-11-29T03:29:30.775Z,97508.73
2018-11-29T03:32:03.247Z,97504.19
2018-11-29T03:34:31.857Z,97502.31
2018-11-29T03:39:40.057Z,97493.37
2018-11-29T03:42:09.130Z,97484.76
2018-11-29T03:44:37.829Z,97486.98
2018-11-29T03:47:06.939Z,97488.98
2018-11-29T03:49:35.408Z,97481.06
2018-11-29T03:52:04.227Z,97492.55
2018-11-29T03:54:32.887Z,97488.45
2018-11-29T03:57:01.800Z,97500.80
2018-11-29T03:59:30.468Z,97495.89
2018-11-29T04:01:59.087Z,97497.08
2018-11-29T04:04:27.803Z,97501.32
2018-11-29T04:06:56.759Z,97500.13
2018-11-29T04:09:25.400Z,97500.63
2018-11-29T04:11:54.468Z,97500.30
2018-11-29T04:14:23.002Z,97504.02
2018-11-29T04:16:52.036Z,97507.39
2018-11-29T04:19:20.424Z,97508.75
2018-11-29T04:21:49.061Z,97500.29
2018-11-29T04:24:17.681Z,97493.40
2018-11-29T04:26:46.607Z,97498.09
2018-11-29T04:29:15.534Z,97491.17
2018-11-29T04:31:44.559Z,97497.09
2018-11-29T04:34:14.002Z,97490.50
2018-11-29T04:36:42.607Z,97484.07
2018-11-29T04:39:12.039Z,97475.98
2018-11-29T04:41:40.934Z,97483.75
2018-11-29T04:44:09.851Z,97473.58
2018-11-29T04:46:40.507Z,97484.23
2018-11-29T04:49:09.123Z,97484.73
2018-11-29T04:51:39.115Z,97488.13
2018-11-29T04:54:08.196Z,97485.28
2018-11-29T04:56:36.816Z,97471.72
2018-11-29T04:59:05.709Z,97469.36
2018-11-29T05:01:34.426Z,97485.30
2018-11-29T05:04:03.319Z,97481.57
2018-11-29T05:06:32.408Z,97465.85
2018-11-29T05:09:01.307Z,97463.28
2018-11-29T05:11:30.382Z,97463.33
2018-11-29T05:13:58.965Z,97457.08
2018-11-29T05:16:29.134Z,97457.70
2018-11-29T05:18:57.795Z,97455.67
2018-11-29T05:21:26.356Z,97458.04
2018-11-29T05:23:55.711Z,97458.91
2018-11-29T05:26:24.675Z,97446.23
2018-11-29T05:28:53.259Z,97446.06
2018-11-29T05:31:21.970Z,97446.39
2018-11-29T05:33:51.928Z,97444.70
2018-11-29T05:36:21.208Z,97440.48
2018-11-29T05:38:49.912Z,97442.36
2018-11-29T05:41:25.202Z,97437.09
2018-11-29T05:43:54.235Z,97439.80
2018-11-29T05:46:23.671Z,97440.30
2018-11-29T05:48:52.622Z,97442.52
2018-11-29T05:51:21.409Z,97444.38
2018-11-29T05:53:51.762Z,97442.69
2018-11-29T05:56:20.510Z,97442.66
2018-11-29T05:58:49.352Z,97441.16
2018-11-29T06:01:23.078Z,97440.49
2018-11-29T06:03:52.206Z,97434.55
2018-11-29T06:06:20.618Z,97432.02
2018-11-29T06:08:49.441Z,97437.09
2018-11-29T06:11:18.188Z,97435.38
2018-11-29T06:13:47.033Z,97433.69
2018-11-29T06:16:15.618Z,97432.17
2018-11-29T06:18:44.312Z,97429.98
2018-11-29T06:21:13.612Z,97422.00
2018-11-29T06:23:42.442Z,97425.19
2018-11-29T06:26:10.871Z,97428.91
2018-11-29T06:28:40.607Z,97430.26
2018-11-29T06:31:09.761Z,97428.88
2018-11-29T06:36:18.295Z,97429.05
2018-11-29T06:38:47.063Z,97424.48
2018-11-29T06:41:16.168Z,97420.75
2018-11-29T06:43:45.063Z,97417.84
2018-11-29T06:46:13.719Z,97425.80
2018-11-29T06:48:43.682Z,97426.09
2018-11-29T06:51:14.131Z,97417.98
2018-11-29T06:55:41.738Z,97421.36
2018-11-29T06:58:11.333Z,97424.57
2018-11-29T07:00:39.925Z,97416.92
2018-11-29T07:03:09.213Z,97414.75
2018-11-29T07:05:38.307Z,97411.50
2018-11-29T07:08:07.328Z,97413.91
2018-11-29T07:10:37.204Z,97409.64
2018-11-29T07:13:06.524Z,97406.38
2018-11-29T07:15:35.148Z,97401.30
2018-11-29T07:20:16.092Z,97396.56
2018-11-29T07:23:41.320Z,97397.57
2018-11-29T07:26:09.885Z,97394.69
2018-11-29T07:28:38.979Z,97386.52
2018-11-29T07:31:07.470Z,97385.05
2018-11-29T07:33:36.267Z,97379.30
2018-11-29T07:36:05.440Z,97379.52
2018-11-29T07:38:34.103Z,97378.84
2018-11-29T07:41:02.962Z,97369.36
2018-11-29T07:43:31.714Z,97376.30
2018-11-29T07:46:00.779Z,97374.78
2018-11-29T07:48:29.498Z,97370.50
2018-11-29T07:50:59.019Z,97375.08
2018-11-29T07:53:28.505Z,97370.17
2018-11-29T07:55:57.396Z,97356.84
2018-11-29T07:58:26.181Z,97357.01
2018-11-29T08:00:54.577Z,97356.97
2018-11-29T08:03:23.477Z,97361.76
2018-11-29T08:05:53.002Z,97359.43
2018-11-29T08:08:22.040Z,97363.63
2018-11-29T08:10:50.957Z,97363.44
2018-11-29T08:13:19.569Z,97362.42
2018-11-29T08:15:48.256Z,97349.58
2018-11-29T08:18:16.803Z,97359.00
2018-11-29T08:20:45.606Z,97358.19
2018-11-29T08:23:15.835Z,97350.76
2018-11-29T08:25:44.725Z,97350.13
2018-11-29T08:28:13.558Z,97353.01
2018-11-29T08:30:42.500Z,97357.06
2018-11-29T08:35:39.466Z,97343.02
2018-11-29T08:38:08.377Z,97352.50
2018-11-29T08:40:36.807Z,97349.06
2018-11-29T08:43:05.609Z,97347.20
2018-11-29T08:45:34.828Z,97348.89
2018-11-29T08:48:04.129Z,97335.91
2018-11-29T08:50:32.960Z,97339.30
2018-11-29T08:53:02.900Z,97345.85
2018-11-29T08:55:32.210Z,97354.31
2018-11-29T08:58:01.560Z,97353.51
2018-11-29T09:00:30.771Z,97351.95
2018-11-29T09:02:59.447Z,97354.64
2018-11-29T09:07:48.318Z,97355.16
2018-11-29T09:10:17.956Z,97357.01
2018-11-29T09:12:47.036Z,97364.80
2018-11-29T09:15:16.437Z,97364.97
2018-11-29T09:17:45.156Z,97356.72
2018-11-29T09:20:16.602Z,97353.30
2018-11-29T09:22:45.342Z,97361.24
2018-11-29T09:25:14.533Z,97361.02
2018-11-29T09:27:43.126Z,97365.64
2018-11-29T09:30:12.188Z,97375.62
2018-11-29T09:32:42.011Z,97383.06
2018-11-29T09:35:11.920Z,97384.72
2018-11-29T09:37:40.496Z,97386.92
2018-11-29T09:40:10.696Z,97397.57
2018-11-29T09:44:01.838Z,97397.75
2018-11-29T09:46:30.630Z,97403.67
2018-11-29T09:48:59.544Z,97400.33
2018-11-29T09:51:28.810Z,97395.25
2018-11-29T09:53:57.721Z,97393.91
2018-11-29T09:56:26.426Z,97400.63
2018-11-29T09:58:55.892Z,97388.44
2018-11-29T10:01:24.641Z,97390.85
2018-11-29T10:03:53.292Z,97383.52
2018-11-29T10:06:21.744Z,97380.31
2018-11-29T10:11:19.603Z,97367.28
2018-11-29T10:13:48.455Z,97360.34
2018-11-29T10:16:16.964Z,97362.72
2018-11-29T10:18:46.163Z,97366.27
2018-11-29T10:21:15.192Z,97362.25
2018-11-29T10:23:43.722Z,97361.18
2018-11-29T10:26:13.049Z,97356.27
2018-11-29T10:28:42.217Z,97342.73
2018-11-29T10:31:11.505Z,97336.27
2018-11-29T10:33:40.068Z,97349.34
2018-11-29T10:36:08.723Z,97336.64
2018-11-29T10:38:37.700Z,97332.74
2018-11-29T10:41:06.801Z,97328.70
2018-11-29T10:43:35.480Z,97321.06
2018-11-29T10:46:04.199Z,97319.72
2018-11-29T10:48:32.755Z,97308.19
2018-11-29T10:51:01.262Z,97311.55
2018-11-29T10:53:36.172Z,97312.25
2018-11-29T10:55:58.562Z,97301.06
2018-11-29T10:58:27.286Z,97294.64
2018-11-29T11:02:53.646Z,97297.35
2018-11-29T11:05:23.092Z,97296.83
2018-11-29T11:07:52.013Z,97285.66
2018-11-29T11:10:21.214Z,97288.86
2018-11-29T11:12:49.752Z,97272.13
2018-11-29T11:15:18.723Z,97260.44
2018-11-29T11:17:47.200Z,97262.25
2018-11-29T11:20:15.951Z,97242.33
2018-11-29T11:22:44.307Z,97233.34
2018-11-29T11:25:13.223Z,97223.39
2018-11-29T11:27:41.595Z,97224.84
2018-11-29T11:30:14.328Z,97218.77
2018-11-29T11:32:43.283Z,97225.52
2018-11-29T11:35:12.005Z,97230.59
2018-11-29T11:37:40.736Z,97235.83
2018-11-29T11:40:10.789Z,97247.16
2018-11-29T11:42:39.792Z,97252.77
2018-11-29T11:45:34.727Z,97261.08
2018-11-29T11:48:03.763Z,97252.59
2018-11-29T11:50:32.455Z,97237.70
2018-11-29T11:53:01.143Z,97259.14
2018-11-29T11:55:30.480Z,97252.02
2018-11-29T11:57:59.575Z,97276.74
2018-11-29T12:00:29.082Z,97270.64
2018-11-29T12:03:00.404Z,97263.36
2018-11-29T12:05:29.107Z,97261.72
2018-11-29T12:07:57.816Z,97253.77
2018-11-29T12:10:26.492Z,97244.11
2018-11-29T12:12:55.443Z,97233.45
2018-11-29T12:15:24.239Z,97221.11
2018-11-29T12:17:53.240Z,97213.66
2018-11-29T12:20:22.022Z,97221.78
2018-11-29T12:23:21.077Z,97214.14
2018-11-29T12:25:49.870Z,97228.55
2018-11-29T12:28:19.094Z,97220.61
2018-11-29T12:30:48.429Z,97210.62
2018-11-29T12:33:17.136Z,97200.80
2018-11-29T12:35:46.207Z,97218.13
2018-11-29T12:38:15.366Z,97201.03
2018-11-29T12:40:44.341Z,97192.52
2018-11-29T12:44:01.190Z,97171.85
2018-11-29T12:46:30.239Z,97150.61
2018-11-29T12:48:58.838Z,97115.22
2018-11-29T12:51:28.099Z,97083.08
2018-11-29T12:53:56.892Z,97076.31
2018-11-29T12:56:27.033Z,97033.38
2018-11-29T12:58:55.941Z,97008.59
2018-11-29T13:01:24.818Z,96983.37
2018-11-29T13:03:53.848Z,96970.30
2018-11-29T13:06:22.913Z,96958.05
2018-11-29T13:08:55.797Z,96967.55
2018-11-29T13:11:24.443Z,96967.41
2018-11-29T13:13:52.870Z,96974.66
2018-11-29T13:16:22.412Z,96949.59
2018-11-29T13:19:17.794Z,97014.44
2018-11-29T13:21:47.547Z,97037.27
2018-11-29T13:24:16.363Z,97061.99
2018-11-29T13:26:45.232Z,97074.69
2018-11-29T13:29:58.833Z,97029.42
2018-11-29T13:32:27.915Z,97145.78
2018-11-29T13:34:57.188Z,97110.22
2018-11-29T13:37:26.342Z,97082.27
2018-11-29T13:39:55.692Z,97046.86
2018-11-29T13:42:25.192Z,97027.72
2018-11-29T13:44:55.440Z,96974.26
2018-11-29T13:47:24.703Z,96996.77
2018-11-29T13:49:54.247Z,97003.02
2018-11-29T13:52:26.409Z,97007.84
2018-11-29T13:54:56.232Z,97022.48
2018-11-29T13:57:26.346Z,97014.00
2018-11-29T13:59:55.441Z,97031.84
2018-11-29T14:02:25.404Z,97045.72
2018-11-29T14:04:55.558Z,96997.28
2018-11-29T14:07:24.966Z,96989.67
2018-11-29T14:09:53.488Z,97006.75
2018-11-29T14:12:22.248Z,96981.36
2018-11-29T14:14:52.384Z,96995.92
2018-11-29T14:17:20.844Z,96978.03
2018-11-29T14:19:50.271Z,96990.00
2018-11-29T14:22:19.250Z,96936.57
2018-11-29T14:24:48.255Z,96934.12
2018-11-29T14:27:16.721Z,96928.38
2018-11-29T14:29:45.241Z,96904.45
2018-11-29T14:32:13.910Z,96955.30
2018-11-29T14:37:12.260Z,96934.30
2018-11-29T14:39:41.017Z,96918.97
2018-11-29T14:42:09.979Z,96920.18
2018-11-29T14:44:38.604Z,96911.61
2018-11-29T14:47:07.564Z,96900.63
2018-11-29T14:49:36.664Z,96889.11
2018-11-29T14:52:05.169Z,96890.47
2018-11-29T14:54:35.176Z,96889.48
2018-11-29T14:57:04.108Z,96901.63
2018-11-29T14:59:33.425Z,96905.87
2018-11-29T15:02:02.043Z,96904.19
2018-11-29T15:04:31.348Z,96922.30
2018-11-29T15:07:00.540Z,96905.20
2018-11-29T15:09:29.187Z,96902.12
2018-11-29T15:11:57.879Z,96899.75
2018-11-29T15:14:27.055Z,96909.66
2018-11-29T15:16:55.807Z,96911.28
2018-11-29T15:19:24.571Z,96910.58
2018-11-29T15:21:55.095Z,96914.31
2018-11-29T15:24:24.430Z,96927.53
2018-11-29T15:26:52.873Z,96917.88
2018-11-29T15:29:21.282Z,96920.94
2018-11-29T15:32:43.054Z,96934.81
2018-11-29T15:35:11.804Z,96927.02
2018-11-29T15:37:40.799Z,96921.41
2018-11-29T15:40:12.947Z,96918.56
2018-11-29T15:42:43.095Z,96906.37
2018-11-29T15:45:14.811Z,96902.97
2018-11-29T15:49:40.202Z,96909.16
2018-11-29T15:52:09.965Z,96900.38
2018-11-29T15:54:38.452Z,96898.69
2018-11-29T15:57:06.931Z,96907.42
2018-11-29T15:59:35.393Z,96901.87
2018-11-29T16:02:03.854Z,96915.08
2018-11-29T16:04:33.209Z,96913.03
2018-11-29T16:07:02.148Z,96921.81
2018-11-29T16:09:30.934Z,96931.47
2018-11-29T16:11:59.534Z,96925.22
2018-11-29T16:16:41.054Z,96929.02
2018-11-29T16:19:09.577Z,96932.56
2018-11-29T16:21:38.284Z,96946.11
2018-11-29T16:24:07.095Z,96940.84
2018-11-29T16:26:35.582Z,96953.50
2018-11-29T16:29:04.331Z,96953.17
2018-11-29T16:31:33.002Z,96955.98
2018-11-29T16:36:35.930Z,96960.05
2018-11-29T16:39:05.834Z,96966.97
2018-11-29T16:41:34.816Z,96963.74
2018-11-29T16:44:03.801Z,96965.94
2018-11-29T16:46:32.443Z,96956.20
2018-11-29T16:49:02.879Z,96958.61
2018-11-29T16:51:30.816Z,96959.42
2018-11-29T16:54:01.275Z,96958.91
2018-11-29T16:56:30.109Z,96968.02
2018-11-29T16:58:59.009Z,96972.27
2018-11-29T17:01:28.079Z,96963.30
2018-11-29T17:03:56.878Z,96952.46
2018-11-29T17:06:25.884Z,96946.53
2018-11-29T17:08:55.703Z,96947.19
2018-11-29T17:11:24.130Z,96960.55
2018-11-29T17:13:52.973Z,96967.32
2018-11-29T17:16:21.658Z,96975.63
2018-11-29T17:18:50.279Z,96989.00
2018-11-29T17:22:07.695Z,96992.91
2018-11-29T17:24:36.653Z,96989.36
2018-11-29T17:27:05.616Z,96983.97
2018-11-29T17:29:34.231Z,96988.73
2018-11-29T17:32:02.645Z,96986.03
2018-11-29T17:34:31.407Z,96992.47
2018-11-29T17:37:03.515Z,96977.02
2018-11-29T17:39:33.737Z,96972.29
2018-11-29T17:42:02.716Z,96975.33
2018-11-29T17:44:31.998Z,96964.16
2018-11-29T17:47:01.929Z,96979.58
2018-11-29T17:49:30.784Z,96971.73
2018-11-29T17:51:59.701Z,96977.16
2018-11-29T17:57:04.248Z,96972.36
2018-11-29T17:59:33.047Z,96971.41
2018-11-29T18:02:02.279Z,96974.03
2018-11-29T18:04:32.884Z,96965.91
2018-11-29T18:07:01.651Z,96962.31
2018-11-29T18:09:30.295Z,96959.27
2018-11-29T18:12:00.720Z,96959.08
2018-11-29T18:14:29.761Z,96950.95
2018-11-29T18:16:58.437Z,96957.41
2018-11-29T18:19:27.422Z,96966.05
2018-11-29T18:21:56.344Z,96975.53
2018-11-29T18:24:26.583Z,96980.44
2018-11-29T18:27:08.710Z,96993.85
2018-11-29T18:29:38.168Z,96993.62
2018-11-29T18:32:07.646Z,96998.82
2018-11-29T18:34:38.574Z,97001.09
2018-11-29T18:37:07.327Z,97006.44
2018-11-29T18:39:36.336Z,97005.16
2018-11-29T18:42:06.111Z,97004.76
2018-11-29T18:44:34.845Z,97000.50
2018-11-29T18:47:03.996Z,96999.84
2018-11-29T18:49:32.561Z,96988.57
2018-11-29T18:52:01.203Z,96987.28
2018-11-29T18:54:30.446Z,96981.02
2018-11-29T18:56:59.045Z,96984.13
2018-11-29T18:59:28.203Z,96979.27
2018-11-29T19:01:57.197Z,96979.41
2018-11-29T19:04:25.952Z,96984.13
2018-11-29T19:06:54.817Z,96977.98
2018-11-29T19:09:23.303Z,96992.05
2018-11-29T19:11:54.445Z,96995.08
2018-11-29T19:14:22.978Z,96990.69
2018-11-29T19:18:57.216Z,96988.96
2018-11-29T19:21:25.981Z,96986.84
2018-11-29T19:26:30.107Z,96985.92
2018-11-29T19:31:54.386Z,96976.25
2018-11-29T19:34:25.174Z,96985.22
2018-11-29T19:36:55.388Z,96980.13
2018-11-29T19:39:23.693Z,96968.63
2018-11-29T19:41:54.082Z,96957.59
2018-11-29T19:44:26.870Z,96957.41
2018-11-29T19:46:55.823Z,96968.45
2018-11-29T19:49:25.410Z,96961.34
2018-11-29T19:51:54.366Z,96952.04
2018-11-29T19:54:22.878Z,96955.73
2018-11-29T19:56:51.526Z,96954.63
2018-11-29T19:59:20.190Z,96948.03
2018-11-29T20:01:49.048Z,96934.98
2018-11-29T20:04:17.763Z,96954.30
2018-11-29T20:06:48.280Z,96953.53
2018-11-29T20:09:23.249Z,96953.45
2018-11-29T20:11:53.110Z,96958.36
2018-11-29T20:14:22.141Z,96954.11
2018-11-29T20:16:51.316Z,96942.88
2018-11-29T20:19:21.003Z,96948.82
2018-11-29T20:21:50.203Z,96963.08
2018-11-29T20:24:22.715Z,96965.60
2018-11-29T20:26:54.217Z,96953.08
2018-11-29T20:29:24.028Z,96956.44
2018-11-29T20:31:53.699Z,96963.59
2018-11-29T20:34:23.011Z,96964.90
2018-11-29T20:36:51.945Z,96975.55
2018-11-29T20:39:21.804Z,96967.02
2018-11-29T20:41:51.445Z,96973.88
2018-11-29T20:44:20.827Z,96963.36
2018-11-29T20:46:49.735Z,96962.52
2018-11-29T20:49:18.935Z,96957.28
2018-11-29T20:51:47.954Z,96960.50
2018-11-29T20:54:17.039Z,96966.91
2018-11-29T20:56:46.380Z,96963.13
2018-11-29T20:59:17.203Z,96963.36
2018-11-29T21:01:46.544Z,96958.96
2018-11-29T21:04:15.832Z,96956.36
2018-11-29T21:06:45.384Z,96947.93
2018-11-29T21:11:02.599Z,96947.09
2018-11-29T21:13:31.719Z,96950.69
2018-11-29T21:16:02.576Z,96950.64
2018-11-29T21:20:23.631Z,96939.84
2018-11-29T21:22:52.772Z,96935.13
2018-11-29T21:25:23.621Z,96940.31
2018-11-29T21:27:52.836Z,96929.14
2018-11-29T21:30:22.157Z,96907.64
2018-11-29T21:32:51.992Z,96916.61
2018-11-29T21:35:21.667Z,96918.75
2018-11-29T21:37:52.903Z,96934.75
2018-11-29T21:40:24.539Z,96945.86
2018-11-29T21:42:53.418Z,96947.84
2018-11-29T21:45:23.353Z,96955.34
2018-11-29T21:47:52.144Z,96956.42
2018-11-29T21:50:21.069Z,96964.50
2018-11-29T21:52:49.884Z,96964.36
2018-11-29T21:57:59.390Z,96975.06
2018-11-29T22:00:27.893Z,96984.81
2018-11-29T22:02:57.602Z,96976.17
2018-11-29T22:05:26.356Z,96984.30
2018-11-29T22:07:55.296Z,96983.09
2018-11-29T22:10:24.072Z,96974.23
2018-11-29T22:12:53.048Z,96979.77
2018-11-29T22:15:22.146Z,96985.63
2018-11-29T22:18:55.776Z,96993.61
2018-11-29T22:21:24.685Z,96982.59
2018-11-29T22:23:56.447Z,96970.59
2018-11-29T22:26:25.531Z,96963.05
2018-11-29T22:28:54.389Z,96961.69
2018-11-29T22:31:23.503Z,96969.67
2018-11-29T22:36:23.260Z,96956.72
2018-11-29T22:38:52.799Z,96958.91
2018-11-29T22:41:21.684Z,96962.50
2018-11-29T22:43:50.547Z,96956.95
2018-11-29T22:46:23.316Z,96960.90
2018-11-29T22:48:52.390Z,96972.54
2018-11-29T22:51:21.320Z,96967.13
2018-11-29T22:53:50.482Z,96975.14
2018-11-29T22:56:19.987Z,96976.02
2018-11-29T22:58:49.085Z,96978.58
2018-11-29T23:01:23.807Z,96974.22
2018-11-29T23:03:53.004Z,96976.59
2018-11-29T23:06:21.792Z,96974.26
2018-11-29T23:08:50.612Z,96971.03
2018-11-29T23:11:19.671Z,96967.82
2018-11-29T23:13:48.660Z,96962.30
2018-11-29T23:16:18.805Z,96966.35
2018-11-29T23:18:49.797Z,96966.02
2018-11-29T23:21:18.451Z,96960.65
2018-11-29T23:23:47.270Z,96963.86
2018-11-29T23:26:15.825Z,96956.58
2018-11-29T23:28:44.557Z,96955.41
2018-11-29T23:31:13.498Z,96949.73
2018-11-29T23:33:42.357Z,96941.80
2018-11-29T23:36:11.412Z,96946.88
2018-11-29T23:38:40.545Z,96942.38
2018-11-29T23:41:09.917Z,96939.97
2018-11-29T23:43:38.432Z,96941.54
2018-11-29T23:46:08.083Z,96929.87
2018-11-29T23:48:37.187Z,96927.02
2018-11-29T23:51:06.762Z,96925.84
2018-11-29T23:53:37.655Z,96933.64
2018-11-29T23:56:06.343Z,96936.41
2018-11-29T23:58:35.681Z,96946.91
